sensor_id;sensor_type;location;lat;lon;timestamp;P1;durP1;ratioP1;P2;durP2;ratioP2
74939;SDS011;63505;45.226;37.908;2023-07-24T00:02:09;14.75;;;10.77;;
74939;SDS011;63505;45.226;37.908;2023-07-24T00:04:35;16.50;;;10.50;;
74939;SDS011;63505;45.226;37.908;2023-07-24T00:07:01;15.50;;;10.23;;
74939;SDS011;63505;45.226;37.908;2023-07-24T00:09:27;15.48;;;10.88;;
74939;SDS011;63505;45.226;37.908;2023-07-24T00:11:54;15.95;;;10.60;;
74939;SDS011;63505;45.226;37.908;2023-07-24T00:14:20;15.00;;;10.23;;
74939;SDS011;63505;45.226;37.908;2023-07-24T00:16:46;13.48;;;10.10;;
74939;SDS011;63505;45.226;37.908;2023-07-24T00:19:12;17.15;;;10.60;;
74939;SDS011;63505;45.226;37.908;2023-07-24T00:21:38;17.63;;;11.55;;
74939;SDS011;63505;45.226;37.908;2023-07-24T00:24:04;16.60;;;10.57;;
74939;SDS011;63505;45.226;37.908;2023-07-24T00:26:30;19.42;;;11.82;;
74939;SDS011;63505;45.226;37.908;2023-07-24T00:28:56;18.15;;;11.70;;
74939;SDS011;63505;45.226;37.908;2023-07-24T00:31:22;19.98;;;12.02;;
74939;SDS011;63505;45.226;37.908;2023-07-24T00:33:47;17.98;;;12.38;;
74939;SDS011;63505;45.226;37.908;2023-07-24T00:36:14;19.02;;;12.25;;
74939;SDS011;63505;45.226;37.908;2023-07-24T00:38:40;17.52;;;10.85;;
74939;SDS011;63505;45.226;37.908;2023-07-24T00:41:06;27.77;;;15.43;;
74939;SDS011;63505;45.226;37.908;2023-07-24T00:43:31;19.70;;;13.13;;
74939;SDS011;63505;45.226;37.908;2023-07-24T00:45:57;21.92;;;13.20;;
74939;SDS011;63505;45.226;37.908;2023-07-24T00:48:23;22.08;;;13.90;;
74939;SDS011;63505;45.226;37.908;2023-07-24T00:50:49;18.00;;;12.25;;
74939;SDS011;63505;45.226;37.908;2023-07-24T00:53:16;19.73;;;10.85;;
74939;SDS011;63505;45.226;37.908;2023-07-24T00:55:43;18.23;;;12.40;;
74939;SDS011;63505;45.226;37.908;2023-07-24T00:58:10;15.10;;;11.10;;
74939;SDS011;63505;45.226;37.908;2023-07-24T01:00:37;20.65;;;12.27;;
74939;SDS011;63505;45.226;37.908;2023-07-24T01:03:04;22.38;;;13.43;;
74939;SDS011;63505;45.226;37.908;2023-07-24T01:05:30;19.90;;;11.70;;
74939;SDS011;63505;45.226;37.908;2023-07-24T01:07:56;19.55;;;12.80;;
74939;SDS011;63505;45.226;37.908;2023-07-24T01:10:22;17.08;;;12.60;;
74939;SDS011;63505;45.226;37.908;2023-07-24T01:12:51;18.75;;;11.88;;
74939;SDS011;63505;45.226;37.908;2023-07-24T01:15:33;18.48;;;12.57;;
74939;SDS011;63505;45.226;37.908;2023-07-24T01:18:29;25.40;;;14.55;;
74939;SDS011;63505;45.226;37.908;2023-07-24T01:20:57;33.42;;;17.80;;
74939;SDS011;63505;45.226;37.908;2023-07-24T01:26:33;27.30;;;17.02;;
74939;SDS011;63505;45.226;37.908;2023-07-24T01:28:59;31.83;;;17.30;;
74939;SDS011;63505;45.226;37.908;2023-07-24T01:31:25;24.38;;;15.90;;
74939;SDS011;63505;45.226;37.908;2023-07-24T01:33:51;27.35;;;13.95;;
74939;SDS011;63505;45.226;37.908;2023-07-24T01:36:17;24.90;;;15.35;;
74939;SDS011;63505;45.226;37.908;2023-07-24T01:38:45;23.25;;;12.80;;
74939;SDS011;63505;45.226;37.908;2023-07-24T01:41:14;20.80;;;13.90;;
74939;SDS011;63505;45.226;37.908;2023-07-24T01:43:40;21.05;;;14.00;;
74939;SDS011;63505;45.226;37.908;2023-07-24T01:46:06;22.08;;;13.73;;
74939;SDS011;63505;45.226;37.908;2023-07-24T01:48:35;24.00;;;14.55;;
74939;SDS011;63505;45.226;37.908;2023-07-24T01:51:01;26.30;;;13.77;;
74939;SDS011;63505;45.226;37.908;2023-07-24T01:53:26;24.55;;;14.95;;
74939;SDS011;63505;45.226;37.908;2023-07-24T01:55:52;23.15;;;12.63;;
74939;SDS011;63505;45.226;37.908;2023-07-24T01:58:18;27.75;;;13.43;;
74939;SDS011;63505;45.226;37.908;2023-07-24T02:00:44;29.95;;;15.02;;
74939;SDS011;63505;45.226;37.908;2023-07-24T02:03:10;26.42;;;13.38;;
74939;SDS011;63505;45.226;37.908;2023-07-24T02:05:36;24.05;;;12.52;;
74939;SDS011;63505;45.226;37.908;2023-07-24T02:08:02;25.95;;;13.13;;
74939;SDS011;63505;45.226;37.908;2023-07-24T02:10:28;22.50;;;12.98;;
74939;SDS011;63505;45.226;37.908;2023-07-24T02:12:54;27.00;;;15.95;;
74939;SDS011;63505;45.226;37.908;2023-07-24T02:15:19;31.90;;;16.95;;
74939;SDS011;63505;45.226;37.908;2023-07-24T02:17:46;26.63;;;15.75;;
74939;SDS011;63505;45.226;37.908;2023-07-24T02:20:11;26.77;;;16.92;;
74939;SDS011;63505;45.226;37.908;2023-07-24T02:22:37;28.13;;;15.57;;
74939;SDS011;63505;45.226;37.908;2023-07-24T02:25:05;28.75;;;14.95;;
74939;SDS011;63505;45.226;37.908;2023-07-24T02:27:31;26.98;;;13.48;;
74939;SDS011;63505;45.226;37.908;2023-07-24T02:30:00;22.92;;;14.70;;
74939;SDS011;63505;45.226;37.908;2023-07-24T02:32:26;20.80;;;11.93;;
74939;SDS011;63505;45.226;37.908;2023-07-24T02:34:52;23.05;;;12.57;;
74939;SDS011;63505;45.226;37.908;2023-07-24T02:37:18;38.40;;;13.20;;
74939;SDS011;63505;45.226;37.908;2023-07-24T02:39:45;17.58;;;12.20;;
74939;SDS011;63505;45.226;37.908;2023-07-24T02:42:11;19.27;;;11.18;;
74939;SDS011;63505;45.226;37.908;2023-07-24T02:44:37;15.60;;;10.05;;
74939;SDS011;63505;45.226;37.908;2023-07-24T02:47:03;19.10;;;10.20;;
74939;SDS011;63505;45.226;37.908;2023-07-24T02:49:29;20.95;;;12.93;;
74939;SDS011;63505;45.226;37.908;2023-07-24T02:51:55;20.33;;;12.18;;
74939;SDS011;63505;45.226;37.908;2023-07-24T02:54:21;21.58;;;13.38;;
74939;SDS011;63505;45.226;37.908;2023-07-24T02:56:47;21.35;;;11.63;;
74939;SDS011;63505;45.226;37.908;2023-07-24T02:59:13;18.35;;;10.35;;
74939;SDS011;63505;45.226;37.908;2023-07-24T03:01:38;14.43;;;9.23;;
74939;SDS011;63505;45.226;37.908;2023-07-24T03:04:04;16.75;;;9.50;;
74939;SDS011;63505;45.226;37.908;2023-07-24T03:06:31;14.43;;;8.98;;
74939;SDS011;63505;45.226;37.908;2023-07-24T03:08:57;14.80;;;7.28;;
74939;SDS011;63505;45.226;37.908;2023-07-24T03:11:23;16.17;;;9.23;;
74939;SDS011;63505;45.226;37.908;2023-07-24T03:13:50;13.27;;;7.88;;
74939;SDS011;63505;45.226;37.908;2023-07-24T03:16:16;10.95;;;7.35;;
74939;SDS011;63505;45.226;37.908;2023-07-24T03:18:46;14.88;;;8.18;;
74939;SDS011;63505;45.226;37.908;2023-07-24T03:21:12;10.77;;;7.55;;
74939;SDS011;63505;45.226;37.908;2023-07-24T03:23:38;15.43;;;7.43;;
74939;SDS011;63505;45.226;37.908;2023-07-24T03:26:04;9.82;;;7.25;;
74939;SDS011;63505;45.226;37.908;2023-07-24T03:28:30;12.55;;;7.00;;
74939;SDS011;63505;45.226;37.908;2023-07-24T03:30:56;10.68;;;7.90;;
74939;SDS011;63505;45.226;37.908;2023-07-24T03:33:22;12.13;;;7.75;;
74939;SDS011;63505;45.226;37.908;2023-07-24T03:35:50;11.30;;;7.35;;
74939;SDS011;63505;45.226;37.908;2023-07-24T03:38:17;11.02;;;6.57;;
74939;SDS011;63505;45.226;37.908;2023-07-24T03:40:42;9.65;;;6.45;;
74939;SDS011;63505;45.226;37.908;2023-07-24T03:43:10;12.05;;;6.95;;
74939;SDS011;63505;45.226;37.908;2023-07-24T03:45:36;10.77;;;7.20;;
74939;SDS011;63505;45.226;37.908;2023-07-24T03:48:02;9.60;;;7.13;;
74939;SDS011;63505;45.226;37.908;2023-07-24T03:50:28;9.98;;;6.90;;
74939;SDS011;63505;45.226;37.908;2023-07-24T03:52:54;10.90;;;6.47;;
74939;SDS011;63505;45.226;37.908;2023-07-24T03:55:20;11.77;;;7.28;;
74939;SDS011;63505;45.226;37.908;2023-07-24T03:57:46;13.25;;;6.25;;
74939;SDS011;63505;45.226;37.908;2023-07-24T04:00:12;22.35;;;12.93;;
74939;SDS011;63505;45.226;37.908;2023-07-24T04:02:39;9.35;;;5.82;;
74939;SDS011;63505;45.226;37.908;2023-07-24T04:05:05;9.55;;;6.68;;
74939;SDS011;63505;45.226;37.908;2023-07-24T04:07:31;35.75;;;22.70;;
74939;SDS011;63505;45.226;37.908;2023-07-24T04:09:57;10.52;;;6.68;;
74939;SDS011;63505;45.226;37.908;2023-07-24T04:12:23;13.32;;;9.05;;
74939;SDS011;63505;45.226;37.908;2023-07-24T04:14:50;8.38;;;5.82;;
74939;SDS011;63505;45.226;37.908;2023-07-24T04:17:16;10.55;;;5.32;;
74939;SDS011;63505;45.226;37.908;2023-07-24T04:19:42;8.18;;;5.85;;
74939;SDS011;63505;45.226;37.908;2023-07-24T04:22:08;17.95;;;6.22;;
74939;SDS011;63505;45.226;37.908;2023-07-24T04:24:34;9.27;;;6.25;;
74939;SDS011;63505;45.226;37.908;2023-07-24T04:27:00;7.07;;;5.40;;
74939;SDS011;63505;45.226;37.908;2023-07-24T04:29:26;19.02;;;11.73;;
74939;SDS011;63505;45.226;37.908;2023-07-24T04:31:52;8.30;;;5.38;;
74939;SDS011;63505;45.226;37.908;2023-07-24T04:34:18;7.68;;;6.45;;
74939;SDS011;63505;45.226;37.908;2023-07-24T04:36:44;7.93;;;5.43;;
74939;SDS011;63505;45.226;37.908;2023-07-24T04:39:10;13.32;;;5.80;;
74939;SDS011;63505;45.226;37.908;2023-07-24T04:41:36;11.75;;;5.55;;
74939;SDS011;63505;45.226;37.908;2023-07-24T04:44:02;9.50;;;4.68;;
74939;SDS011;63505;45.226;37.908;2023-07-24T04:46:27;12.95;;;8.52;;
74939;SDS011;63505;45.226;37.908;2023-07-24T04:48:53;19.17;;;10.55;;
74939;SDS011;63505;45.226;37.908;2023-07-24T04:51:19;11.60;;;9.70;;
74939;SDS011;63505;45.226;37.908;2023-07-24T04:53:45;7.38;;;4.70;;
74939;SDS011;63505;45.226;37.908;2023-07-24T04:56:11;7.38;;;4.70;;
74939;SDS011;63505;45.226;37.908;2023-07-24T04:58:37;10.13;;;5.60;;
74939;SDS011;63505;45.226;37.908;2023-07-24T05:01:03;8.57;;;5.55;;
74939;SDS011;63505;45.226;37.908;2023-07-24T05:03:30;9.02;;;6.00;;
74939;SDS011;63505;45.226;37.908;2023-07-24T05:05:56;8.45;;;4.63;;
74939;SDS011;63505;45.226;37.908;2023-07-24T05:08:23;6.90;;;4.82;;
74939;SDS011;63505;45.226;37.908;2023-07-24T05:10:55;6.13;;;4.28;;
74939;SDS011;63505;45.226;37.908;2023-07-24T05:13:22;6.32;;;4.47;;
74939;SDS011;63505;45.226;37.908;2023-07-24T05:15:49;7.53;;;5.20;;
74939;SDS011;63505;45.226;37.908;2023-07-24T05:18:14;7.78;;;4.65;;
74939;SDS011;63505;45.226;37.908;2023-07-24T05:20:46;5.93;;;4.70;;
74939;SDS011;63505;45.226;37.908;2023-07-24T05:23:14;7.63;;;4.32;;
74939;SDS011;63505;45.226;37.908;2023-07-24T05:25:40;6.00;;;4.50;;
74939;SDS011;63505;45.226;37.908;2023-07-24T05:28:06;6.55;;;4.30;;
74939;SDS011;63505;45.226;37.908;2023-07-24T05:30:32;8.60;;;5.22;;
74939;SDS011;63505;45.226;37.908;2023-07-24T05:32:58;5.93;;;4.53;;
74939;SDS011;63505;45.226;37.908;2023-07-24T05:35:25;6.03;;;4.15;;
74939;SDS011;63505;45.226;37.908;2023-07-24T05:37:51;5.25;;;4.03;;
74939;SDS011;63505;45.226;37.908;2023-07-24T05:40:17;7.00;;;4.18;;
74939;SDS011;63505;45.226;37.908;2023-07-24T05:42:43;5.05;;;3.60;;
74939;SDS011;63505;45.226;37.908;2023-07-24T05:45:09;6.40;;;4.50;;
74939;SDS011;63505;45.226;37.908;2023-07-24T05:47:42;6.00;;;3.80;;
74939;SDS011;63505;45.226;37.908;2023-07-24T05:50:08;5.80;;;3.85;;
74939;SDS011;63505;45.226;37.908;2023-07-24T05:52:34;6.63;;;4.15;;
74939;SDS011;63505;45.226;37.908;2023-07-24T05:55:00;5.70;;;4.15;;
74939;SDS011;63505;45.226;37.908;2023-07-24T05:57:26;5.38;;;3.80;;
74939;SDS011;63505;45.226;37.908;2023-07-24T05:59:53;6.18;;;4.32;;
74939;SDS011;63505;45.226;37.908;2023-07-24T06:02:19;6.75;;;4.47;;
74939;SDS011;63505;45.226;37.908;2023-07-24T06:04:44;7.22;;;4.53;;
74939;SDS011;63505;45.226;37.908;2023-07-24T06:07:10;7.13;;;4.03;;
74939;SDS011;63505;45.226;37.908;2023-07-24T06:09:36;4.85;;;3.50;;
74939;SDS011;63505;45.226;37.908;2023-07-24T06:12:02;8.48;;;3.70;;
74939;SDS011;63505;45.226;37.908;2023-07-24T06:14:28;6.30;;;4.53;;
74939;SDS011;63505;45.226;37.908;2023-07-24T06:16:54;8.07;;;4.97;;
74939;SDS011;63505;45.226;37.908;2023-07-24T06:19:20;6.32;;;4.75;;
74939;SDS011;63505;45.226;37.908;2023-07-24T06:21:47;7.10;;;4.68;;
74939;SDS011;63505;45.226;37.908;2023-07-24T06:24:12;9.43;;;4.88;;
74939;SDS011;63505;45.226;37.908;2023-07-24T06:26:40;7.00;;;4.25;;
74939;SDS011;63505;45.226;37.908;2023-07-24T06:29:06;6.30;;;4.47;;
74939;SDS011;63505;45.226;37.908;2023-07-24T06:31:32;7.03;;;5.00;;
74939;SDS011;63505;45.226;37.908;2023-07-24T06:33:58;6.45;;;5.13;;
74939;SDS011;63505;45.226;37.908;2023-07-24T06:36:24;8.43;;;4.85;;
74939;SDS011;63505;45.226;37.908;2023-07-24T06:38:50;9.35;;;4.95;;
74939;SDS011;63505;45.226;37.908;2023-07-24T06:41:16;8.13;;;5.05;;
74939;SDS011;63505;45.226;37.908;2023-07-24T06:43:42;7.05;;;5.50;;
74939;SDS011;63505;45.226;37.908;2023-07-24T06:46:09;6.95;;;5.05;;
74939;SDS011;63505;45.226;37.908;2023-07-24T06:48:34;8.27;;;5.15;;
74939;SDS011;63505;45.226;37.908;2023-07-24T06:51:01;9.10;;;5.30;;
74939;SDS011;63505;45.226;37.908;2023-07-24T06:53:27;7.53;;;5.07;;
74939;SDS011;63505;45.226;37.908;2023-07-24T06:55:53;12.35;;;5.38;;
74939;SDS011;63505;45.226;37.908;2023-07-24T06:58:19;7.30;;;4.82;;
74939;SDS011;63505;45.226;37.908;2023-07-24T07:00:46;6.60;;;5.10;;
74939;SDS011;63505;45.226;37.908;2023-07-24T07:03:12;7.72;;;4.93;;
74939;SDS011;63505;45.226;37.908;2023-07-24T07:05:37;7.60;;;4.95;;
74939;SDS011;63505;45.226;37.908;2023-07-24T07:08:03;9.52;;;6.22;;
74939;SDS011;63505;45.226;37.908;2023-07-24T07:10:32;8.15;;;4.95;;
74939;SDS011;63505;45.226;37.908;2023-07-24T07:12:58;9.50;;;5.90;;
74939;SDS011;63505;45.226;37.908;2023-07-24T07:15:24;8.18;;;6.22;;
74939;SDS011;63505;45.226;37.908;2023-07-24T07:17:50;7.80;;;5.03;;
74939;SDS011;63505;45.226;37.908;2023-07-24T07:20:16;7.45;;;5.15;;
74939;SDS011;63505;45.226;37.908;2023-07-24T07:22:42;7.03;;;4.72;;
74939;SDS011;63505;45.226;37.908;2023-07-24T07:25:08;9.40;;;4.43;;
74939;SDS011;63505;45.226;37.908;2023-07-24T07:27:33;7.35;;;5.70;;
74939;SDS011;63505;45.226;37.908;2023-07-24T07:29:59;7.57;;;5.55;;
74939;SDS011;63505;45.226;37.908;2023-07-24T07:32:25;7.53;;;5.55;;
74939;SDS011;63505;45.226;37.908;2023-07-24T07:34:52;7.50;;;5.82;;
74939;SDS011;63505;45.226;37.908;2023-07-24T07:37:18;7.60;;;5.88;;
74939;SDS011;63505;45.226;37.908;2023-07-24T07:39:44;6.28;;;4.70;;
74939;SDS011;63505;45.226;37.908;2023-07-24T07:42:10;6.57;;;5.03;;
74939;SDS011;63505;45.226;37.908;2023-07-24T07:44:36;9.70;;;5.78;;
74939;SDS011;63505;45.226;37.908;2023-07-24T07:47:02;8.38;;;5.85;;
74939;SDS011;63505;45.226;37.908;2023-07-24T07:49:29;8.70;;;4.80;;
74939;SDS011;63505;45.226;37.908;2023-07-24T07:51:55;9.20;;;5.93;;
74939;SDS011;63505;45.226;37.908;2023-07-24T07:54:20;7.05;;;5.00;;
74939;SDS011;63505;45.226;37.908;2023-07-24T07:56:46;7.22;;;5.53;;
74939;SDS011;63505;45.226;37.908;2023-07-24T07:59:12;10.57;;;6.00;;
74939;SDS011;63505;45.226;37.908;2023-07-24T08:01:38;9.65;;;7.18;;
74939;SDS011;63505;45.226;37.908;2023-07-24T08:04:07;9.98;;;7.15;;
74939;SDS011;63505;45.226;37.908;2023-07-24T08:06:33;10.35;;;6.80;;
74939;SDS011;63505;45.226;37.908;2023-07-24T08:08:59;7.85;;;6.80;;
74939;SDS011;63505;45.226;37.908;2023-07-24T08:11:24;9.55;;;6.75;;
74939;SDS011;63505;45.226;37.908;2023-07-24T08:13:50;8.25;;;6.40;;
74939;SDS011;63505;45.226;37.908;2023-07-24T08:16:16;8.07;;;7.13;;
74939;SDS011;63505;45.226;37.908;2023-07-24T08:18:46;12.32;;;7.35;;
74939;SDS011;63505;45.226;37.908;2023-07-24T08:21:13;10.13;;;6.88;;
74939;SDS011;63505;45.226;37.908;2023-07-24T08:23:40;11.25;;;6.35;;
74939;SDS011;63505;45.226;37.908;2023-07-24T08:26:06;10.88;;;6.45;;
74939;SDS011;63505;45.226;37.908;2023-07-24T08:28:33;8.55;;;5.85;;
74939;SDS011;63505;45.226;37.908;2023-07-24T08:31:01;9.98;;;7.18;;
74939;SDS011;63505;45.226;37.908;2023-07-24T08:33:28;7.43;;;6.47;;
74939;SDS011;63505;45.226;37.908;2023-07-24T08:36:02;9.65;;;6.43;;
74939;SDS011;63505;45.226;37.908;2023-07-24T08:38:29;8.25;;;5.28;;
74939;SDS011;63505;45.226;37.908;2023-07-24T08:41:05;9.32;;;5.55;;
74939;SDS011;63505;45.226;37.908;2023-07-24T08:43:39;7.95;;;6.30;;
74939;SDS011;63505;45.226;37.908;2023-07-24T08:46:06;7.75;;;5.50;;
74939;SDS011;63505;45.226;37.908;2023-07-24T08:48:33;9.27;;;6.13;;
74939;SDS011;63505;45.226;37.908;2023-07-24T08:51:07;9.40;;;5.95;;
74939;SDS011;63505;45.226;37.908;2023-07-24T08:53:35;7.90;;;6.07;;
74939;SDS011;63505;45.226;37.908;2023-07-24T08:56:03;8.05;;;5.53;;
74939;SDS011;63505;45.226;37.908;2023-07-24T08:58:30;9.30;;;5.72;;
74939;SDS011;63505;45.226;37.908;2023-07-24T09:00:56;7.88;;;5.95;;
74939;SDS011;63505;45.226;37.908;2023-07-24T09:03:22;8.05;;;6.70;;
74939;SDS011;63505;45.226;37.908;2023-07-24T09:05:48;6.78;;;5.78;;
74939;SDS011;63505;45.226;37.908;2023-07-24T09:08:14;7.28;;;5.38;;
74939;SDS011;63505;45.226;37.908;2023-07-24T09:10:40;8.20;;;5.75;;
74939;SDS011;63505;45.226;37.908;2023-07-24T09:13:06;11.38;;;5.35;;
74939;SDS011;63505;45.226;37.908;2023-07-24T09:15:39;11.23;;;6.18;;
74939;SDS011;63505;45.226;37.908;2023-07-24T09:18:06;11.63;;;6.25;;
74939;SDS011;63505;45.226;37.908;2023-07-24T09:20:37;10.82;;;7.18;;
74939;SDS011;63505;45.226;37.908;2023-07-24T09:23:06;12.13;;;6.80;;
74939;SDS011;63505;45.226;37.908;2023-07-24T09:25:33;10.98;;;6.03;;
74939;SDS011;63505;45.226;37.908;2023-07-24T09:28:00;10.18;;;6.57;;
74939;SDS011;63505;45.226;37.908;2023-07-24T09:30:26;12.38;;;6.55;;
74939;SDS011;63505;45.226;37.908;2023-07-24T09:32:52;8.63;;;6.25;;
74939;SDS011;63505;45.226;37.908;2023-07-24T09:35:19;8.32;;;7.10;;
74939;SDS011;63505;45.226;37.908;2023-07-24T09:37:46;7.70;;;6.50;;
74939;SDS011;63505;45.226;37.908;2023-07-24T09:40:13;10.10;;;7.03;;
74939;SDS011;63505;45.226;37.908;2023-07-24T09:42:40;8.05;;;6.65;;
74939;SDS011;63505;45.226;37.908;2023-07-24T09:45:06;9.52;;;5.97;;
74939;SDS011;63505;45.226;37.908;2023-07-24T09:47:35;11.77;;;6.47;;
74939;SDS011;63505;45.226;37.908;2023-07-24T09:50:04;10.25;;;6.47;;
74939;SDS011;63505;45.226;37.908;2023-07-24T09:52:31;9.93;;;6.50;;
74939;SDS011;63505;45.226;37.908;2023-07-24T09:55:05;8.77;;;6.07;;
74939;SDS011;63505;45.226;37.908;2023-07-24T09:57:36;8.07;;;6.35;;
74939;SDS011;63505;45.226;37.908;2023-07-24T10:00:03;11.40;;;6.30;;
74939;SDS011;63505;45.226;37.908;2023-07-24T10:02:30;6.55;;;5.85;;
74939;SDS011;63505;45.226;37.908;2023-07-24T10:04:56;7.03;;;5.47;;
74939;SDS011;63505;45.226;37.908;2023-07-24T10:07:22;11.95;;;6.15;;
74939;SDS011;63505;45.226;37.908;2023-07-24T10:09:49;8.65;;;6.35;;
74939;SDS011;63505;45.226;37.908;2023-07-24T10:12:17;15.52;;;6.03;;
74939;SDS011;63505;45.226;37.908;2023-07-24T10:14:45;6.85;;;5.10;;
74939;SDS011;63505;45.226;37.908;2023-07-24T10:17:11;7.82;;;6.07;;
74939;SDS011;63505;45.226;37.908;2023-07-24T10:19:41;9.30;;;6.00;;
74939;SDS011;63505;45.226;37.908;2023-07-24T10:22:20;7.63;;;5.80;;
74939;SDS011;63505;45.226;37.908;2023-07-24T10:24:46;12.93;;;7.13;;
74939;SDS011;63505;45.226;37.908;2023-07-24T10:27:13;11.80;;;6.90;;
74939;SDS011;63505;45.226;37.908;2023-07-24T10:29:38;8.38;;;5.57;;
74939;SDS011;63505;45.226;37.908;2023-07-24T10:32:16;7.88;;;5.28;;
74939;SDS011;63505;45.226;37.908;2023-07-24T10:34:43;15.30;;;6.72;;
74939;SDS011;63505;45.226;37.908;2023-07-24T10:37:09;8.95;;;5.63;;
74939;SDS011;63505;45.226;37.908;2023-07-24T10:39:39;9.90;;;7.15;;
74939;SDS011;63505;45.226;37.908;2023-07-24T10:42:09;8.43;;;5.97;;
74939;SDS011;63505;45.226;37.908;2023-07-24T10:44:37;10.18;;;6.43;;
74939;SDS011;63505;45.226;37.908;2023-07-24T10:47:03;8.38;;;6.32;;
74939;SDS011;63505;45.226;37.908;2023-07-24T10:49:29;17.15;;;7.22;;
74939;SDS011;63505;45.226;37.908;2023-07-24T10:51:55;10.57;;;6.20;;
74939;SDS011;63505;45.226;37.908;2023-07-24T10:54:22;12.13;;;6.78;;
74939;SDS011;63505;45.226;37.908;2023-07-24T10:56:48;11.25;;;6.80;;
74939;SDS011;63505;45.226;37.908;2023-07-24T10:59:14;8.27;;;6.55;;
74939;SDS011;63505;45.226;37.908;2023-07-24T11:01:40;14.05;;;6.50;;
74939;SDS011;63505;45.226;37.908;2023-07-24T11:04:06;10.40;;;6.20;;
74939;SDS011;63505;45.226;37.908;2023-07-24T11:06:32;9.27;;;6.63;;
74939;SDS011;63505;45.226;37.908;2023-07-24T11:08:59;10.07;;;8.18;;
74939;SDS011;63505;45.226;37.908;2023-07-24T11:11:29;7.78;;;6.97;;
74939;SDS011;63505;45.226;37.908;2023-07-24T11:14:00;9.73;;;6.05;;
74939;SDS011;63505;45.226;37.908;2023-07-24T11:16:29;7.90;;;5.57;;
74939;SDS011;63505;45.226;37.908;2023-07-24T11:18:58;9.32;;;6.40;;
74939;SDS011;63505;45.226;37.908;2023-07-24T11:21:24;16.88;;;6.85;;
74939;SDS011;63505;45.226;37.908;2023-07-24T11:23:51;11.15;;;6.70;;
74939;SDS011;63505;45.226;37.908;2023-07-24T11:26:18;7.72;;;6.05;;
74939;SDS011;63505;45.226;37.908;2023-07-24T11:28:46;11.18;;;7.00;;
74939;SDS011;63505;45.226;37.908;2023-07-24T11:31:12;11.63;;;6.82;;
74939;SDS011;63505;45.226;37.908;2023-07-24T11:33:37;9.25;;;6.38;;
74939;SDS011;63505;45.226;37.908;2023-07-24T11:36:04;8.52;;;6.40;;
74939;SDS011;63505;45.226;37.908;2023-07-24T11:38:30;11.38;;;5.70;;
74939;SDS011;63505;45.226;37.908;2023-07-24T11:40:56;7.72;;;5.80;;
74939;SDS011;63505;45.226;37.908;2023-07-24T11:43:23;8.82;;;5.85;;
74939;SDS011;63505;45.226;37.908;2023-07-24T11:45:50;8.75;;;6.13;;
74939;SDS011;63505;45.226;37.908;2023-07-24T11:48:18;11.55;;;5.70;;
74939;SDS011;63505;45.226;37.908;2023-07-24T11:50:49;7.93;;;6.00;;
74939;SDS011;63505;45.226;37.908;2023-07-24T11:53:29;7.32;;;5.35;;
74939;SDS011;63505;45.226;37.908;2023-07-24T11:55:59;8.98;;;6.05;;
74939;SDS011;63505;45.226;37.908;2023-07-24T11:58:30;11.75;;;5.90;;
74939;SDS011;63505;45.226;37.908;2023-07-24T12:00:56;7.78;;;5.78;;
74939;SDS011;63505;45.226;37.908;2023-07-24T12:03:26;6.85;;;5.70;;
74939;SDS011;63505;45.226;37.908;2023-07-24T12:05:53;9.13;;;6.47;;
74939;SDS011;63505;45.226;37.908;2023-07-24T12:08:34;8.65;;;6.35;;
74939;SDS011;63505;45.226;37.908;2023-07-24T12:11:01;9.05;;;5.88;;
74939;SDS011;63505;45.226;37.908;2023-07-24T12:13:27;11.57;;;6.50;;
74939;SDS011;63505;45.226;37.908;2023-07-24T12:15:57;7.97;;;4.90;;
74939;SDS011;63505;45.226;37.908;2023-07-24T12:18:23;9.40;;;5.93;;
74939;SDS011;63505;45.226;37.908;2023-07-24T12:20:49;13.68;;;6.10;;
74939;SDS011;63505;45.226;37.908;2023-07-24T12:23:14;9.43;;;5.28;;
74939;SDS011;63505;45.226;37.908;2023-07-24T12:25:42;7.53;;;5.40;;
74939;SDS011;63505;45.226;37.908;2023-07-24T12:28:08;7.22;;;5.28;;
74939;SDS011;63505;45.226;37.908;2023-07-24T12:30:34;8.25;;;6.30;;
74939;SDS011;63505;45.226;37.908;2023-07-24T12:33:00;7.95;;;5.70;;
74939;SDS011;63505;45.226;37.908;2023-07-24T12:35:26;7.43;;;4.80;;
74939;SDS011;63505;45.226;37.908;2023-07-24T12:37:51;7.68;;;5.43;;
74939;SDS011;63505;45.226;37.908;2023-07-24T12:40:17;7.18;;;5.03;;
74939;SDS011;63505;45.226;37.908;2023-07-24T12:42:43;10.88;;;5.00;;
74939;SDS011;63505;45.226;37.908;2023-07-24T12:45:09;7.07;;;4.63;;
74939;SDS011;63505;45.226;37.908;2023-07-24T12:47:35;5.45;;;4.75;;
74939;SDS011;63505;45.226;37.908;2023-07-24T12:50:01;6.32;;;4.10;;
74939;SDS011;63505;45.226;37.908;2023-07-24T12:52:28;6.25;;;4.10;;
74939;SDS011;63505;45.226;37.908;2023-07-24T12:54:55;6.28;;;4.20;;
74939;SDS011;63505;45.226;37.908;2023-07-24T12:57:20;8.70;;;4.63;;
74939;SDS011;63505;45.226;37.908;2023-07-24T12:59:46;6.95;;;3.72;;
74939;SDS011;63505;45.226;37.908;2023-07-24T13:02:12;11.52;;;4.53;;
74939;SDS011;63505;45.226;37.908;2023-07-24T13:04:38;7.25;;;4.15;;
74939;SDS011;63505;45.226;37.908;2023-07-24T13:07:04;6.18;;;4.22;;
74939;SDS011;63505;45.226;37.908;2023-07-24T13:09:30;6.20;;;4.63;;
74939;SDS011;63505;45.226;37.908;2023-07-24T13:11:56;8.98;;;4.22;;
74939;SDS011;63505;45.226;37.908;2023-07-24T13:14:22;13.00;;;5.03;;
74939;SDS011;63505;45.226;37.908;2023-07-24T13:16:49;5.53;;;4.22;;
74939;SDS011;63505;45.226;37.908;2023-07-24T13:19:15;6.40;;;4.53;;
74939;SDS011;63505;45.226;37.908;2023-07-24T13:21:41;6.18;;;4.03;;
74939;SDS011;63505;45.226;37.908;2023-07-24T13:24:08;5.25;;;4.30;;
74939;SDS011;63505;45.226;37.908;2023-07-24T13:26:35;10.10;;;4.32;;
74939;SDS011;63505;45.226;37.908;2023-07-24T13:29:02;14.90;;;4.75;;
74939;SDS011;63505;45.226;37.908;2023-07-24T13:31:28;6.57;;;4.03;;
74939;SDS011;63505;45.226;37.908;2023-07-24T13:33:56;4.93;;;3.75;;
74939;SDS011;63505;45.226;37.908;2023-07-24T13:36:22;9.05;;;3.67;;
74939;SDS011;63505;45.226;37.908;2023-07-24T13:38:48;7.22;;;3.70;;
74939;SDS011;63505;45.226;37.908;2023-07-24T13:41:14;7.13;;;3.63;;
74939;SDS011;63505;45.226;37.908;2023-07-24T13:43:40;5.85;;;3.63;;
74939;SDS011;63505;45.226;37.908;2023-07-24T13:46:06;6.45;;;3.40;;
74939;SDS011;63505;45.226;37.908;2023-07-24T13:48:33;4.35;;;2.92;;
74939;SDS011;63505;45.226;37.908;2023-07-24T13:50:59;7.60;;;3.67;;
74939;SDS011;63505;45.226;37.908;2023-07-24T13:53:25;6.60;;;2.75;;
74939;SDS011;63505;45.226;37.908;2023-07-24T13:55:51;4.03;;;2.85;;
74939;SDS011;63505;45.226;37.908;2023-07-24T13:58:17;3.95;;;2.85;;
74939;SDS011;63505;45.226;37.908;2023-07-24T14:00:43;4.93;;;3.42;;
74939;SDS011;63505;45.226;37.908;2023-07-24T14:03:09;5.45;;;3.60;;
74939;SDS011;63505;45.226;37.908;2023-07-24T14:05:35;5.25;;;2.78;;
74939;SDS011;63505;45.226;37.908;2023-07-24T14:08:03;4.97;;;2.55;;
74939;SDS011;63505;45.226;37.908;2023-07-24T14:10:30;5.97;;;2.70;;
74939;SDS011;63505;45.226;37.908;2023-07-24T14:12:56;5.28;;;2.60;;
74939;SDS011;63505;45.226;37.908;2023-07-24T14:15:23;5.80;;;3.00;;
74939;SDS011;63505;45.226;37.908;2023-07-24T14:17:49;5.00;;;2.72;;
74939;SDS011;63505;45.226;37.908;2023-07-24T14:20:15;5.25;;;3.17;;
74939;SDS011;63505;45.226;37.908;2023-07-24T14:22:41;6.63;;;2.50;;
74939;SDS011;63505;45.226;37.908;2023-07-24T14:25:06;7.20;;;2.97;;
74939;SDS011;63505;45.226;37.908;2023-07-24T14:27:32;3.85;;;2.35;;